Time;durP1;ratioP1;P1;durP2;ratioP2;P2;SDS_P1;SDS_P2;PMS_P1;PMS_P2;Temp;Humidity;BMP_temperature;BMP_pressure;BME280_temperature;BME280_humidity;BME280_pressure;Samples;Min_cycle;Max_cycle;Signal;HPM_P1;HPM_P2
2023/10/02 00:02:05;;;;;;;8.40;6.78;;;14.70;98.90;;;;;;5015811;28;20105;-92
2023/10/02 00:04:34;;;;;;;11.55;6.28;;;14.60;97.90;;;;;;4994044;28;20121;-91
2023/10/02 00:07:06;;;;;;;9.50;7.20;;;14.60;97.80;;;;;;5014883;28;20042;-92
2023/10/02 00:09:49;;;;;;;8.95;6.32;;;14.60;97.10;;;;;;5028220;28;20097;-93
2023/10/02 00:12:16;;;;;;;8.52;5.95;;;14.60;96.50;;;;;;5007376;28;20014;-93
2023/10/02 00:14:42;;;;;;;8.18;6.15;;;14.60;96.10;;;;;;5030455;28;20057;-93
2023/10/02 00:17:14;;;;;;;9.93;5.50;;;14.50;96.00;;;;;;5021322;28;20025;-91
2023/10/02 00:19:44;;;;;;;10.05;6.03;;;14.40;95.80;;;;;;5014126;28;20022;-94
2023/10/02 00:22:38;;;;;;;8.10;5.60;;;14.30;96.40;;;;;;5014348;28;20022;-92
2023/10/02 00:25:07;;;;;;;9.30;6.18;;;14.20;97.30;;;;;;5013763;28;20018;-91
2023/10/02 00:27:38;;;;;;;8.20;5.75;;;14.20;97.30;;;;;;5012223;28;20086;-92
2023/10/02 00:30:07;;;;;;;8.18;6.32;;;14.10;97.40;;;;;;5006566;28;20044;-91
2023/10/02 00:32:34;;;;;;;8.65;7.00;;;14.10;97.80;;;;;;4999403;28;20030;-91
2023/10/02 00:35:03;;;;;;;10.05;6.45;;;14.10;98.20;;;;;;5012580;28;20026;-91
2023/10/02 00:37:51;;;;;;;10.95;6.80;;;14.10;98.00;;;;;;4995625;28;20022;-92
2023/10/02 00:40:22;;;;;;;11.45;6.68;;;14.10;98.50;;;;;;4986011;28;20018;-95
2023/10/02 00:42:56;;;;;;;9.25;6.15;;;14.10;97.80;;;;;;5002845;28;20033;-92
2023/10/02 00:45:29;;;;;;;;;;;14.10;97.60;;;;;;5015999;28;20010;-92
2023/10/02 00:48:24;;;;;;;;;;;14.10;97.20;;;;;;5011231;28;19904;-91
2023/10/02 00:50:49;;;;;;;10.68;5.68;;;14.10;97.10;;;;;;5035549;28;19924;-92
2023/10/02 00:53:14;;;;;;;;;;;13.90;97.50;;;;;;5027966;28;20017;-93
2023/10/02 00:55:44;;;;;;;8.90;5.78;;;13.90;97.80;;;;;;5017482;28;19940;-91
2023/10/02 00:58:11;;;;;;;8.70;5.88;;;13.90;97.50;;;;;;5015819;28;20010;-91
2023/10/02 01:00:37;;;;;;;9.50;5.70;;;13.90;96.80;;;;;;5015031;28;20030;-91
2023/10/02 01:03:05;;;;;;;10.70;4.55;;;13.80;97.00;;;;;;5014042;28;20408;-93
2023/10/02 01:05:42;;;;;;;7.95;6.95;;;13.80;97.90;;;;;;4991050;28;20606;-90
2023/10/02 01:08:24;;;;;;;7.50;6.00;;;13.90;97.70;;;;;;4995754;28;20041;-92
2023/10/02 01:10:57;;;;;;;8.93;6.10;;;13.90;97.60;;;;;;5015831;28;20022;-92
2023/10/02 01:13:30;;;;;;;9.30;6.10;;;14.00;96.50;;;;;;5021194;28;20429;-92
2023/10/02 01:16:07;;;;;;;10.93;6.57;;;14.00;96.50;;;;;;5019938;28;20026;-92
2023/10/02 01:18:37;;;;;;;12.75;7.55;;;13.90;97.00;;;;;;5004777;28;20042;-91
2023/10/02 01:21:11;;;;;;;8.80;5.05;;;13.80;97.60;;;;;;5002119;28;20025;-91
2023/10/02 01:24:09;;;;;;;8.13;5.47;;;13.80;97.40;;;;;;5012060;28;20018;-91
2023/10/02 01:26:40;;;;;;;8.00;5.43;;;13.70;97.40;;;;;;4991205;28;20073;-91
2023/10/02 01:29:07;;;;;;;10.18;6.93;;;13.70;97.10;;;;;;5006756;28;20057;-91
2023/10/02 01:31:44;;;;;;;9.55;5.63;;;13.60;97.40;;;;;;4999220;28;20026;-92
2023/10/02 01:34:33;;;;;;;8.82;6.72;;;13.60;97.90;;;;;;5016920;28;20101;-91
2023/10/02 01:37:32;;;;;;;9.15;5.85;;;13.60;97.80;;;;;;5017134;28;20049;-92
2023/10/02 01:39:56;;;;;;;7.40;5.45;;;13.50;97.90;;;;;;5014366;28;20023;-91
2023/10/02 01:42:28;;;;;;;10.75;6.43;;;13.50;97.50;;;;;;5018922;28;20476;-91
2023/10/02 01:44:55;;;;;;;8.75;6.25;;;13.50;97.50;;;;;;5018386;28;20057;-91
2023/10/02 01:47:21;;;;;;;8.05;5.63;;;13.60;97.30;;;;;;5013978;28;20069;-93
2023/10/02 01:49:47;;;;;;;9.75;7.32;;;13.60;97.10;;;;;;5017803;28;20014;-92
2023/10/02 01:52:13;;;;;;;7.57;6.47;;;13.50;97.10;;;;;;4999458;28;20548;-93
2023/10/02 01:54:40;;;;;;;7.07;5.57;;;13.60;97.00;;;;;;5019177;28;20022;-91
2023/10/02 01:57:07;;;;;;;9.10;6.15;;;13.60;97.20;;;;;;5017185;28;20030;-92
2023/10/02 01:59:32;;;;;;;9.00;6.45;;;13.60;98.40;;;;;;5017846;28;20022;-91
2023/10/02 02:01:58;;;;;;;9.77;6.82;;;13.70;99.80;;;;;;5016530;28;20116;-92
2023/10/02 02:04:28;;;;;;;8.10;6.38;;;13.70;99.20;;;;;;5004570;28;20034;-92
2023/10/02 02:06:56;;;;;;;9.13;6.07;;;13.70;98.30;;;;;;5001285;28;20137;-92
2023/10/02 02:09:30;;;;;;;9.45;6.57;;;13.70;97.00;;;;;;5000283;28;20041;-92
2023/10/02 02:12:12;;;;;;;10.18;6.13;;;13.50;97.90;;;;;;5017445;28;20026;-91
2023/10/02 02:14:51;;;;;;;9.43;5.85;;;13.50;97.80;;;;;;4999961;28;20697;-91
2023/10/02 02:17:27;;;;;;;8.70;6.03;;;13.50;98.10;;;;;;5016360;28;20037;-92
2023/10/02 02:19:55;;;;;;;10.65;7.07;;;13.50;99.60;;;;;;4998028;28;20507;-92
2023/10/02 02:22:26;;;;;;;10.52;6.90;;;13.60;99.90;;;;;;4998021;28;20022;-91
2023/10/02 02:24:55;;;;;;;9.38;6.05;;;13.70;99.40;;;;;;5016919;28;20022;-91
2023/10/02 02:27:21;;;;;;;9.48;6.68;;;13.70;98.90;;;;;;5003032;28;20041;-92
2023/10/02 02:29:48;;;;;;;8.73;5.25;;;13.70;99.40;;;;;;5012673;28;20030;-92
2023/10/02 02:32:19;;;;;;;10.07;7.38;;;13.60;98.20;;;;;;5007169;28;20079;-91
2023/10/02 02:34:46;;;;;;;9.68;6.10;;;13.60;98.20;;;;;;4997907;28;20034;-93
2023/10/02 02:37:13;;;;;;;8.15;6.05;;;13.60;98.50;;;;;;5007004;28;20030;-91
2023/10/02 02:39:39;;;;;;;10.38;6.32;;;13.50;97.80;;;;;;5014487;28;20018;-92
2023/10/02 02:44:48;;;;;;;9.57;6.35;;;13.40;99.30;;;;;;5017982;28;20088;-91
2023/10/02 02:47:20;;;;;;;9.32;6.05;;;13.40;99.90;;;;;;5018945;28;20021;-93
2023/10/02 02:50:00;;;;;;;8.40;4.88;;;13.30;99.90;;;;;;4995597;28;20400;-91
2023/10/02 02:52:32;;;;;;;9.75;6.32;;;13.30;99.90;;;;;;5017860;28;20022;-91
2023/10/02 02:55:03;;;;;;;9.27;8.18;;;13.30;98.70;;;;;;5016835;28;20033;-92
2023/10/02 02:57:31;;;;;;;10.23;6.03;;;13.20;99.10;;;;;;5016434;28;20088;-91
2023/10/02 03:02:47;;;;;;;9.15;5.55;;;13.10;99.40;;;;;;5017498;28;20037;-91
2023/10/02 03:05:20;;;;;;;11.10;6.18;;;13.20;99.70;;;;;;5013348;28;20037;-92
2023/10/02 03:07:49;;;;;;;9.52;5.90;;;13.20;99.40;;;;;;5017413;28;20030;-92
2023/10/02 03:10:17;;;;;;;9.15;6.80;;;13.20;98.90;;;;;;5017638;28;20048;-91
2023/10/02 03:12:50;;;;;;;9.48;6.88;;;13.10;98.50;;;;;;5017769;28;20015;-92
2023/10/02 03:15:18;;;;;;;8.95;6.10;;;13.10;98.90;;;;;;5001945;28;20018;-92
2023/10/02 03:17:45;;;;;;;9.65;6.10;;;13.00;98.80;;;;;;5011178;28;20473;-91
2023/10/02 03:20:24;;;;;;;8.43;5.93;;;13.00;98.80;;;;;;5000511;28;20054;-91
2023/10/02 03:22:55;;;;;;;8.10;6.22;;;13.00;98.80;;;;;;5015930;28;20022;-91
2023/10/02 03:25:28;;;;;;;8.00;6.00;;;13.00;99.00;;;;;;4996866;28;20080;-92
2023/10/02 03:27:55;;;;;;;12.57;6.50;;;13.00;98.10;;;;;;5015797;28;20022;-92
2023/10/02 03:30:38;;;;;;;7.63;5.63;;;13.00;97.90;;;;;;4998167;28;20026;-91
2023/10/02 03:33:17;;;;;;;8.90;6.68;;;12.90;98.80;;;;;;5006917;28;20060;-91
2023/10/02 03:35:56;;;;;;;9.02;6.30;;;12.80;99.40;;;;;;5015229;28;20022;-91
2023/10/02 03:38:26;;;;;;;9.63;6.22;;;12.80;99.80;;;;;;5007667;28;20021;-92
2023/10/02 03:41:02;;;;;;;13.60;6.57;;;12.80;99.40;;;;;;5016380;28;20045;-92
2023/10/02 03:43:43;;;;;;;8.50;5.55;;;12.80;99.40;;;;;;5011470;28;20054;-93
2023/10/02 03:46:22;;;;;;;8.02;5.35;;;12.70;99.70;;;;;;5005947;28;20409;-93
2023/10/02 03:49:08;;;;;;;7.38;5.28;;;12.70;99.40;;;;;;5018582;28;20022;-95
2023/10/02 03:51:40;;;;;;;8.65;6.68;;;12.70;98.90;;;;;;5021344;28;20017;-94
2023/10/02 03:54:17;;;;;;;11.43;5.97;;;12.60;99.00;;;;;;4986708;28;20536;-93
2023/10/02 03:57:02;;;;;;;10.55;7.18;;;12.60;99.20;;;;;;5021137;28;20033;-93
2023/10/02 03:59:51;;;;;;;13.43;6.95;;;12.50;99.80;;;;;;5018693;28;20026;-95
2023/10/02 04:02:25;;;;;;;10.38;6.28;;;12.60;99.80;;;;;;5004675;28;20076;-94
2023/10/02 04:04:51;;;;;;;8.43;6.15;;;12.40;99.90;;;;;;4997996;28;20037;-93
2023/10/02 04:07:20;;;;;;;9.15;6.75;;;12.50;99.90;;;;;;5015651;28;20132;-93
2023/10/02 04:09:50;;;;;;;9.27;5.45;;;12.50;99.90;;;;;;5014543;28;20391;-92
2023/10/02 04:12:22;;;;;;;11.45;7.50;;;12.50;99.50;;;;;;5007424;28;20108;-93
2023/10/02 04:14:48;;;;;;;8.88;5.38;;;12.40;99.90;;;;;;5003926;28;20028;-92
2023/10/02 04:17:21;;;;;;;8.05;5.15;;;12.40;99.70;;;;;;4996715;28;20022;-92
2023/10/02 04:19:56;;;;;;;7.15;5.50;;;12.40;99.40;;;;;;5017870;28;20475;-92
2023/10/02 04:22:26;;;;;;;9.55;5.30;;;12.40;99.60;;;;;;4994866;28;20026;-93
2023/10/02 04:25:03;;;;;;;8.82;6.38;;;12.40;99.90;;;;;;5015377;28;20027;-92
2023/10/02 04:28:27;;;;;;;8.30;6.53;;;12.40;99.90;;;;;;4995164;28;20022;-92
2023/10/02 04:30:25;;;;;;;12.27;7.07;;;12.30;99.90;;;;;;4997462;28;20069;-92
2023/10/02 04:32:59;;;;;;;11.52;8.32;;;12.30;99.90;;;;;;5007629;28;20033;-93
2023/10/02 04:35:44;;;;;;;8.15;5.78;;;12.30;99.90;;;;;;4991287;28;20053;-92
2023/10/02 04:38:14;;;;;;;8.95;5.97;;;12.30;99.90;;;;;;4996823;28;20030;-93
2023/10/02 04:40:49;;;;;;;9.65;6.32;;;12.30;99.70;;;;;;5014016;28;20025;-93
2023/10/02 04:44:18;;;;;;;10.88;6.60;;;12.30;99.90;;;;;;4983768;28;20030;-92
2023/10/02 04:47:37;;;;;;;8.07;5.40;;;12.30;99.70;;;;;;4980674;28;20038;-93
2023/10/02 04:54:05;;;;;;;9.25;5.82;;;12.20;99.20;;;;;;5014921;28;20053;-94
2023/10/02 05:01:28;;;;;;;;;;;;;;;;;;;;;
2023/10/02 05:02:48;;;;;;;8.93;6.22;;;12.10;99.90;;;;;;4934583;29;20035;-94
2023/10/02 05:05:23;;;;;;;21.77;8.23;;;12.10;99.90;;;;;;4979481;28;20072;-95
2023/10/02 05:08:58;;;;;;;;;;;;;;;;;;;;;
2023/10/02 05:12:22;;;;;;;9.50;7.85;;;12.00;99.90;;;;;;4983173;28;20041;-93
2023/10/02 05:14:51;;;;;;;8.85;5.75;;;12.00;99.40;;;;;;4957488;23;20421;-89
2023/10/02 05:17:17;;;;;;;11.82;6.05;;;11.90;99.90;;;;;;4981682;28;20049;-88
2023/10/02 05:20:07;;;;;;;9.63;5.93;;;11.90;99.90;;;;;;4981664;28;20038;-90
2023/10/02 05:22:36;;;;;;;10.77;6.55;;;11.90;99.90;;;;;;4985970;28;20766;-92
2023/10/02 05:25:07;;;;;;;10.48;6.03;;;11.90;99.90;;;;;;4984643;28;20064;-90
2023/10/02 05:27:35;;;;;;;9.43;6.20;;;11.80;99.90;;;;;;4980292;28;20051;-90
2023/10/02 05:30:17;;;;;;;10.68;5.60;;;11.80;99.90;;;;;;4989027;28;20033;-90
2023/10/02 05:32:44;;;;;;;11.68;6.00;;;11.80;99.90;;;;;;4979815;28;20035;-89
2023/10/02 05:37:41;;;;;;;12.00;5.35;;;11.80;99.90;;;;;;4999474;28;20026;-89
2023/10/02 05:45:38;;;;;;;8.30;5.80;;;11.80;99.90;;;;;;4972581;28;20035;-90
2023/10/02 05:48:15;;;;;;;7.90;6.00;;;11.80;99.90;;;;;;4978266;28;20019;-89
2023/10/02 05:50:48;;;;;;;8.90;5.47;;;11.80;99.90;;;;;;4979675;28;20030;-87
2023/10/02 05:53:19;;;;;;;9.63;6.45;;;11.90;99.90;;;;;;4982957;28;20026;-90
2023/10/02 05:56:04;;;;;;;9.65;4.68;;;11.90;99.50;;;;;;4982436;28;20415;-90
2023/10/02 05:58:31;;;;;;;9.98;6.95;;;11.90;99.90;;;;;;4974682;28;20093;-90
2023/10/02 06:01:03;;;;;;;18.88;6.93;;;11.90;99.90;;;;;;4980527;28;20019;-91
2023/10/02 06:03:36;;;;;;;12.95;5.47;;;12.00;99.90;;;;;;4960436;28;20023;-90
2023/10/02 06:06:17;;;;;;;10.48;6.53;;;12.00;99.90;;;;;;4977689;28;20031;-90
2023/10/02 06:09:01;;;;;;;12.80;5.97;;;12.00;99.70;;;;;;4974566;28;20035;-89
2023/10/02 06:11:28;;;;;;;17.48;5.45;;;12.00;99.90;;;;;;4978150;28;20757;-90
2023/10/02 06:14:14;;;;;;;;;;;12.00;99.90;;;;;;4976906;28;20030;-90
2023/10/02 06:16:47;;;;;;;15.43;6.63;;;12.00;99.90;;;;;;4987442;28;19921;-90
2023/10/02 06:19:15;;;;;;;10.68;5.75;;;12.00;99.90;;;;;;4977065;28;20051;-93
2023/10/02 06:24:29;;;;;;;20.52;7.63;;;12.20;99.90;;;;;;4980282;28;20031;-89
2023/10/02 06:27:04;;;;;;;16.38;7.18;;;12.10;99.90;;;;;;4971697;28;20026;-87
2023/10/02 06:29:36;;;;;;;11.35;6.95;;;12.10;99.90;;;;;;4985433;28;20030;-90
2023/10/02 06:32:09;;;;;;;11.02;6.38;;;12.20;99.90;;;;;;4974623;28;20050;-88
2023/10/02 06:34:37;;;;;;;10.52;5.55;;;12.30;99.90;;;;;;4971072;28;20063;-90
2023/10/02 06:37:07;;;;;;;9.70;6.27;;;12.40;99.90;;;;;;4986924;28;20511;-90
2023/10/02 06:39:37;;;;;;;11.23;7.38;;;12.40;99.90;;;;;;4965209;28;20023;-90
2023/10/02 06:42:10;;;;;;;10.65;7.15;;;12.50;99.90;;;;;;4967880;28;20138;-88
2023/10/02 06:44:41;;;;;;;9.98;5.85;;;12.60;99.90;;;;;;4981907;28;20043;-89
2023/10/02 06:47:11;;;;;;;12.32;7.85;;;12.70;99.90;;;;;;4961935;28;20025;-89
2023/10/02 06:49:39;;;;;;;11.35;6.28;;;12.70;99.90;;;;;;4978670;28;20050;-89
2023/10/02 06:52:15;;;;;;;10.90;7.50;;;12.70;99.90;;;;;;4982874;28;20030;-90
2023/10/02 06:54:44;;;;;;;10.65;7.43;;;12.80;99.90;;;;;;4981837;28;20023;-89
2023/10/02 06:57:18;;;;;;;9.88;6.53;;;12.90;99.90;;;;;;4976672;28;20039;-89
2023/10/02 06:59:52;;;;;;;13.50;6.82;;;13.00;99.90;;;;;;4958237;28;20171;-87
2023/10/02 07:02:27;;;;;;;11.60;6.75;;;13.20;99.90;;;;;;4973430;28;20074;-89
2023/10/02 07:04:55;;;;;;;9.18;6.78;;;13.40;99.90;;;;;;4972755;28;20029;-87
2023/10/02 07:07:28;;;;;;;9.60;6.43;;;13.50;99.90;;;;;;4978006;28;20026;-89
2023/10/02 07:09:55;;;;;;;12.25;7.97;;;13.60;99.90;;;;;;4969742;28;20536;-89
2023/10/02 07:12:21;;;;;;;9.55;6.53;;;13.70;99.90;;;;;;4997002;28;20023;-89
2023/10/02 07:14:47;;;;;;;12.07;6.85;;;13.80;99.90;;;;;;4990707;28;20133;-89
2023/10/02 07:17:22;;;;;;;12.15;7.40;;;13.90;99.90;;;;;;4988158;28;20034;-88
2023/10/02 07:19:50;;;;;;;11.90;7.70;;;14.00;99.90;;;;;;4978674;28;20030;-90
2023/10/02 07:22:24;;;;;;;19.67;9.13;;;14.10;99.90;;;;;;4979704;28;20105;-89
2023/10/02 07:24:55;;;;;;;20.65;8.60;;;14.20;99.90;;;;;;4963675;28;20110;-89
2023/10/02 07:27:27;;;;;;;15.88;8.52;;;14.20;99.90;;;;;;4987356;28;20027;-87
2023/10/02 07:29:56;;;;;;;17.50;9.25;;;14.30;99.90;;;;;;4962447;28;20038;-89
2023/10/02 07:32:24;;;;;;;23.58;9.50;;;14.30;99.90;;;;;;4974988;28;20495;-90
2023/10/02 07:34:51;;;;;;;13.30;7.75;;;14.40;99.90;;;;;;4998471;28;20135;-87
2023/10/02 07:37:21;;;;;;;15.18;9.20;;;14.50;99.90;;;;;;4983936;28;20022;-87
2023/10/02 07:39:58;;;;;;;14.27;6.97;;;14.50;99.90;;;;;;4960954;28;20050;-88
2023/10/02 07:42:25;;;;;;;13.00;7.80;;;14.60;99.90;;;;;;4961485;28;20035;-87
2023/10/02 07:44:52;;;;;;;13.65;8.05;;;14.70;99.90;;;;;;4979085;28;20047;-88
2023/10/02 07:47:18;;;;;;;15.88;7.35;;;14.80;99.90;;;;;;4997312;28;20026;-89
2023/10/02 07:49:51;;;;;;;15.68;10.32;;;14.90;99.90;;;;;;4985091;28;20022;-90
2023/10/02 07:52:29;;;;;;;11.70;8.77;;;14.90;99.90;;;;;;4971221;28;20046;-90
2023/10/02 07:54:59;;;;;;;14.63;8.20;;;15.00;99.90;;;;;;4962875;28;20034;-91
2023/10/02 07:57:32;;;;;;;13.73;7.90;;;15.10;99.90;;;;;;4985015;28;20029;-91
2023/10/02 08:00:33;;;;;;;11.32;6.57;;;15.20;99.90;;;;;;4963310;28;20098;-90
2023/10/02 08:02:51;;;;;;;12.98;8.18;;;15.40;99.90;;;;;;4979951;28;20027;-90
2023/10/02 08:05:20;;;;;;;12.80;8.18;;;15.50;99.90;;;;;;4995627;28;20034;-88
2023/10/02 08:07:47;;;;;;;13.93;8.63;;;15.60;99.90;;;;;;4979449;28;20031;-89
2023/10/02 08:10:15;;;;;;;14.13;8.52;;;15.80;99.90;;;;;;4973516;28;20085;-89
2023/10/02 08:12:54;;;;;;;18.63;8.38;;;15.90;99.30;;;;;;4963001;28;20093;-89
2023/10/02 08:15:26;;;;;;;15.68;8.07;;;16.00;99.90;;;;;;4979781;28;20086;-91
2023/10/02 08:20:24;;;;;;;17.45;11.27;;;16.40;98.90;;;;;;4979799;28;20098;-91
2023/10/02 08:22:52;;;;;;;14.00;10.20;;;16.50;98.60;;;;;;4980274;28;20028;-89
2023/10/02 08:25:23;;;;;;;18.33;9.88;;;16.50;98.10;;;;;;4980444;28;20027;-89
2023/10/02 08:27:57;;;;;;;17.40;8.75;;;16.60;98.50;;;;;;4963189;28;20027;-91
2023/10/02 08:30:27;;;;;;;13.13;9.73;;;16.70;97.50;;;;;;4980071;28;20031;-91
2023/10/02 08:33:19;;;;;;;16.42;8.52;;;16.80;96.60;;;;;;4963398;28;20023;-91
2023/10/02 08:35:47;;;;;;;16.35;9.55;;;17.00;97.20;;;;;;4981391;28;20050;-90
2023/10/02 08:38:23;;;;;;;16.45;8.63;;;17.00;97.30;;;;;;4963593;28;20388;-91
2023/10/02 08:40:59;;;;;;;15.55;9.63;;;17.10;96.70;;;;;;4962878;28;20023;-92
2023/10/02 08:43:30;;;;;;;15.23;8.40;;;17.20;95.90;;;;;;4979828;28;20122;-90
2023/10/02 08:46:00;;;;;;;17.50;9.45;;;17.30;95.70;;;;;;4971734;28;20026;-91
2023/10/02 08:48:26;;;;;;;14.20;8.50;;;17.40;95.30;;;;;;4999373;28;20034;-91
2023/10/02 08:51:01;;;;;;;20.23;9.75;;;17.50;94.20;;;;;;4982058;28;20044;-91
2023/10/02 08:53:27;;;;;;;14.10;8.55;;;17.60;93.70;;;;;;4968962;28;20034;-90
2023/10/02 08:56:24;;;;;;;14.52;9.13;;;17.70;94.00;;;;;;4963245;28;20031;-89
2023/10/02 08:59:15;;;;;;;16.80;8.88;;;17.90;93.10;;;;;;4980793;28;20019;-91
2023/10/02 09:01:37;;;;;;;17.95;9.90;;;17.90;92.70;;;;;;4981360;28;20023;-90
2023/10/02 09:04:22;;;;;;;16.73;8.85;;;18.10;92.40;;;;;;4964192;28;20165;-91
2023/10/02 09:06:49;;;;;;;17.17;9.23;;;18.30;91.00;;;;;;4964144;28;20027;-92
2023/10/02 09:11:53;;;;;;;14.98;8.30;;;18.60;89.40;;;;;;4961220;29;20524;-91
2023/10/02 09:17:07;;;;;;;14.93;8.55;;;19.00;87.70;;;;;;4962105;29;20046;-91
2023/10/02 09:19:39;;;;;;;15.10;9.10;;;19.20;86.50;;;;;;4929977;29;20035;-91
2023/10/02 09:22:13;;;;;;;14.20;6.82;;;19.40;86.00;;;;;;4962834;28;20418;-90
2023/10/02 09:24:42;;;;;;;16.63;8.88;;;19.60;85.10;;;;;;4981771;28;20022;-91
2023/10/02 09:27:28;;;;;;;14.18;9.40;;;19.80;83.80;;;;;;4980596;28;20102;-91
2023/10/02 09:30:19;;;;;;;12.27;7.75;;;20.00;82.50;;;;;;4980258;28;20025;-90
2023/10/02 09:32:47;;;;;;;16.40;9.98;;;20.10;82.20;;;;;;4968068;28;20019;-91
2023/10/02 09:35:32;;;;;;;13.75;8.00;;;20.50;79.30;;;;;;4987890;28;20046;-92
2023/10/02 09:38:22;;;;;;;14.88;8.40;;;20.70;77.90;;;;;;4980667;28;20030;-90
2023/10/02 09:43:35;;;;;;;14.10;8.60;;;21.10;75.70;;;;;;4985454;28;20612;-90
2023/10/02 09:46:06;;;;;;;16.00;9.52;;;21.30;74.60;;;;;;5000417;28;20481;-91
2023/10/02 09:48:47;;;;;;;17.08;8.88;;;21.40;74.30;;;;;;4985537;28;20062;-91
2023/10/02 09:52:15;;;;;;;14.98;9.25;;;21.50;74.50;;;;;;4972278;28;20616;-89
2023/10/02 09:55:03;;;;;;;14.55;9.05;;;21.70;73.40;;;;;;4986998;28;20031;-92
2023/10/02 09:57:34;;;;;;;17.33;8.77;;;21.90;72.20;;;;;;4989448;28;20030;-90
2023/10/02 10:03:23;;;;;;;16.75;10.70;;;22.10;71.40;;;;;;4999816;28;20052;-92
2023/10/02 10:06:15;;;;;;;14.65;10.15;;;22.20;70.90;;;;;;5000436;28;20019;-90
2023/10/02 10:09:25;;;;;;;18.98;8.93;;;22.20;71.10;;;;;;4974267;28;20476;-92
2023/10/02 10:11:45;;;;;;;15.10;9.00;;;22.40;71.70;;;;;;4968019;28;20031;-91
2023/10/02 10:14:40;;;;;;;16.48;8.93;;;22.70;69.20;;;;;;4966343;28;20041;-93
2023/10/02 10:17:14;;;;;;;16.15;9.32;;;22.80;68.80;;;;;;4966190;28;20059;-92
2023/10/02 10:20:18;;;;;;;15.05;8.85;;;23.10;67.90;;;;;;4973404;28;20022;-93
2023/10/02 10:22:51;;;;;;;18.83;9.90;;;23.20;66.70;;;;;;4983404;28;20027;-91
2023/10/02 10:27:54;;;;;;;16.40;8.50;;;23.30;66.90;;;;;;4982371;28;20027;-91
2023/10/02 10:33:27;;;;;;;16.50;9.35;;;23.50;65.30;;;;;;4990937;28;20113;-91
2023/10/02 10:35:55;;;;;;;20.65;10.23;;;24.00;63.20;;;;;;4985674;28;20034;-93
2023/10/02 10:38:36;;;;;;;17.38;10.65;;;24.00;62.10;;;;;;4975832;28;20042;-92
2023/10/02 10:41:09;;;;;;;17.33;9.93;;;24.20;62.00;;;;;;4981461;28;20022;-91
2023/10/02 10:43:44;;;;;;;20.13;10.80;;;24.30;61.90;;;;;;4981298;28;20066;-92
2023/10/02 10:46:30;;;;;;;18.10;10.70;;;24.60;60.60;;;;;;4981459;28;20034;-93
2023/10/02 10:49:10;;;;;;;18.20;9.98;;;24.60;59.80;;;;;;4964798;28;20027;-91
2023/10/02 10:51:39;;;;;;;18.23;9.90;;;24.50;59.40;;;;;;4976154;28;20030;-92
2023/10/02 10:54:30;;;;;;;18.17;10.07;;;24.80;57.80;;;;;;4980683;28;20496;-91
2023/10/02 10:57:22;;;;;;;21.95;9.98;;;24.90;57.70;;;;;;4979626;28;20026;-93
2023/10/02 11:00:23;;;;;;;17.88;10.38;;;24.60;57.10;;;;;;4995552;28;20093;-92
2023/10/02 11:03:13;;;;;;;21.08;11.40;;;24.70;58.70;;;;;;4973175;28;20028;-91
2023/10/02 11:05:39;;;;;;;19.60;9.43;;;24.80;56.90;;;;;;4982833;28;20027;-91
2023/10/02 11:08:23;;;;;;;18.45;9.88;;;25.10;56.70;;;;;;4963037;28;20025;-91
2023/10/02 11:11:31;;;;;;;22.25;11.90;;;25.20;57.00;;;;;;5000276;28;20102;-96
2023/10/02 11:14:02;;;;;;;17.40;10.20;;;24.80;57.80;;;;;;4991893;28;20054;-92
2023/10/02 11:16:36;;;;;;;18.25;9.73;;;24.60;58.10;;;;;;4968425;28;20154;-92
2023/10/02 11:19:21;;;;;;;19.60;10.55;;;25.30;56.90;;;;;;4981006;28;20029;-92
2023/10/02 11:22:02;;;;;;;20.85;10.23;;;25.10;57.20;;;;;;4964950;28;20023;-92
2023/10/02 11:24:29;;;;;;;18.00;10.57;;;25.60;56.80;;;;;;4948328;28;20022;-92
2023/10/02 11:27:08;;;;;;;19.38;10.82;;;25.80;56.60;;;;;;4987657;28;20107;-91
2023/10/02 11:29:42;;;;;;;15.65;9.23;;;26.10;54.50;;;;;;4984595;28;20055;-91
2023/10/02 11:32:24;;;;;;;18.17;9.35;;;26.20;55.50;;;;;;4988717;28;20022;-91
2023/10/02 11:35:02;;;;;;;17.52;8.77;;;26.80;54.20;;;;;;4987540;28;20078;-90
2023/10/02 11:37:28;;;;;;;18.77;10.32;;;26.90;52.30;;;;;;4988341;28;20027;-89
2023/10/02 11:39:55;;;;;;;22.25;9.98;;;27.40;51.30;;;;;;4988216;28;20039;-92
2023/10/02 11:42:30;;;;;;;20.17;10.15;;;27.00;51.60;;;;;;4994423;23;20046;-92
2023/10/02 11:44:59;;;;;;;17.00;10.85;;;27.00;51.50;;;;;;4971630;28;20023;-93
2023/10/02 11:47:29;;;;;;;18.33;9.93;;;27.70;50.70;;;;;;4967301;28;20050;-93
2023/10/02 11:50:13;;;;;;;19.30;9.90;;;27.80;48.90;;;;;;4954473;28;20062;-93
2023/10/02 11:52:41;;;;;;;17.10;9.07;;;27.90;48.20;;;;;;4981146;28;20062;-93
2023/10/02 11:55:10;;;;;;;17.05;9.38;;;28.00;48.40;;;;;;4999826;28;20103;-94
2023/10/02 11:57:37;;;;;;;17.30;10.23;;;28.00;48.40;;;;;;4988407;28;20081;-94
2023/10/02 12:00:12;;;;;;;18.52;10.45;;;27.90;48.30;;;;;;4970704;28;20022;-93
2023/10/02 12:02:39;;;;;;;20.33;10.02;;;28.20;47.70;;;;;;4978969;28;20026;-92
2023/10/02 12:05:08;;;;;;;20.02;10.88;;;28.10;48.40;;;;;;4971233;28;20026;-93
2023/10/02 12:07:34;;;;;;;16.88;9.65;;;28.30;46.90;;;;;;4966497;28;20054;-92
2023/10/02 12:10:00;;;;;;;14.95;8.77;;;28.50;46.10;;;;;;4988761;28;20037;-92
2023/10/02 12:12:27;;;;;;;18.27;10.13;;;28.70;45.80;;;;;;4996302;28;20026;-93
2023/10/02 12:14:54;;;;;;;;;;;29.00;46.00;;;;;;4987625;28;20031;-93
2023/10/02 12:17:21;;;;;;;21.40;10.65;;;29.10;45.10;;;;;;4955984;28;19937;-93
2023/10/02 12:19:48;;;;;;;19.25;9.43;;;28.70;44.70;;;;;;4996047;28;20022;-93
2023/10/02 12:22:14;;;;;;;23.08;10.85;;;29.00;44.80;;;;;;4991314;28;20516;-93
2023/10/02 12:24:40;;;;;;;18.73;9.20;;;29.50;43.20;;;;;;4996629;28;20025;-93
2023/10/02 12:27:11;;;;;;;22.13;9.15;;;29.70;41.60;;;;;;4986568;28;20342;-94
2023/10/02 12:29:37;;;;;;;20.98;10.43;;;29.60;42.40;;;;;;4980795;28;20015;-93
2023/10/02 12:32:03;;;;;;;18.40;9.57;;;29.70;42.90;;;;;;4969964;28;20417;-93
2023/10/02 12:34:29;;;;;;;18.58;10.85;;;30.00;42.40;;;;;;4984537;28;20022;-94
2023/10/02 12:36:55;;;;;;;19.70;10.85;;;29.90;42.00;;;;;;4992546;28;20022;-92
2023/10/02 12:39:22;;;;;;;22.23;11.73;;;30.40;40.40;;;;;;4977960;28;20106;-92
2023/10/02 12:41:48;;;;;;;;;;;30.60;40.50;;;;;;4968309;28;20030;-93
2023/10/02 12:44:14;;;;;;;20.35;10.73;;;30.60;39.20;;;;;;4980221;28;19964;-92
2023/10/02 12:46:50;;;;;;;19.95;11.00;;;30.80;38.60;;;;;;4979030;28;20030;-93
2023/10/02 12:49:17;;;;;;;18.00;9.85;;;31.20;38.10;;;;;;4994953;28;20033;-94
2023/10/02 12:51:46;;;;;;;19.73;11.10;;;31.30;36.80;;;;;;4988486;28;20531;-93
2023/10/02 12:54:12;;;;;;;18.38;9.77;;;31.00;38.00;;;;;;4975761;28;20405;-93
2023/10/02 12:56:39;;;;;;;22.33;10.82;;;31.20;37.60;;;;;;4969757;28;20031;-92
2023/10/02 12:59:10;;;;;;;19.65;10.45;;;31.30;36.50;;;;;;4978051;28;20031;-93
2023/10/02 13:01:36;;;;;;;19.40;9.45;;;31.60;36.20;;;;;;4984100;28;20384;-93
2023/10/02 13:04:04;;;;;;;19.70;10.57;;;31.70;36.60;;;;;;4996242;28;20033;-92
2023/10/02 13:06:29;;;;;;;25.77;11.18;;;31.70;36.70;;;;;;4971520;28;20085;-93
2023/10/02 13:09:14;;;;;;;24.75;10.02;;;31.90;35.00;;;;;;4983491;28;20026;-93
2023/10/02 13:11:42;;;;;;;18.48;10.43;;;31.90;35.60;;;;;;4962624;28;20028;-93
2023/10/02 13:14:12;;;;;;;21.40;11.65;;;31.30;36.40;;;;;;4996498;28;20051;-92
2023/10/02 13:16:44;;;;;;;21.60;10.95;;;31.70;36.20;;;;;;4990279;28;20037;-93
2023/10/02 13:19:12;;;;;;;21.85;10.68;;;31.90;34.90;;;;;;4963412;28;20121;-94
2023/10/02 13:21:42;;;;;;;18.33;9.82;;;32.00;35.50;;;;;;4970328;28;20038;-92
2023/10/02 13:24:15;;;;;;;20.48;10.02;;;31.80;36.00;;;;;;4982727;28;20031;-92
2023/10/02 13:26:41;;;;;;;18.17;10.38;;;32.30;35.70;;;;;;4989224;28;20090;-93
2023/10/02 13:29:07;;;;;;;20.00;11.02;;;31.90;34.80;;;;;;4980445;28;20070;-94
2023/10/02 13:31:33;;;;;;;19.65;10.82;;;32.10;35.20;;;;;;4967470;28;20027;-92
2023/10/02 13:34:00;;;;;;;22.67;10.63;;;32.10;35.00;;;;;;4980624;28;20028;-93
2023/10/02 13:36:27;;;;;;;18.15;9.80;;;32.10;35.20;;;;;;4961606;28;20061;-93
2023/10/02 13:38:56;;;;;;;21.70;10.23;;;32.30;35.10;;;;;;4994395;28;20034;-92
2023/10/02 13:41:24;;;;;;;18.52;8.45;;;32.50;34.40;;;;;;4975322;28;20258;-93
2023/10/02 13:43:53;;;;;;;19.45;10.35;;;32.60;34.00;;;;;;4995814;28;20034;-92
2023/10/02 13:46:22;;;;;;;18.23;8.73;;;32.30;34.40;;;;;;4987016;28;20023;-93
2023/10/02 13:48:52;;;;;;;18.73;8.65;;;32.40;33.70;;;;;;4978176;28;20038;-94
2023/10/02 13:51:20;;;;;;;17.67;8.38;;;32.70;32.70;;;;;;4987315;28;20031;-93
2023/10/02 13:53:53;;;;;;;16.80;9.60;;;32.10;34.00;;;;;;4985706;28;20543;-94
2023/10/02 13:56:25;;;;;;;17.73;8.68;;;31.80;33.70;;;;;;4966760;28;20506;-92
2023/10/02 13:58:51;;;;;;;18.27;9.02;;;31.50;34.50;;;;;;4957835;28;20054;-93
2023/10/02 14:01:21;;;;;;;17.17;8.63;;;32.30;33.00;;;;;;4970520;28;20019;-93